createdAt,value
2023-03-03T00:00:15.050Z,11.10
2023-03-03T00:00:50.505Z,11.07
2023-03-03T00:01:25.543Z,11.60
2023-03-03T00:01:57.841Z,11.87
2023-03-03T00:02:32.766Z,11.40
2023-03-03T00:03:09.487Z,11.20
2023-03-03T00:03:44.422Z,11.17
2023-03-03T00:04:16.776Z,11.13
2023-03-03T00:04:49.024Z,11.57
2023-03-03T00:05:23.882Z,11.30
2023-03-03T00:05:56.148Z,11.53
2023-03-03T00:06:31.102Z,11.50
2023-03-03T00:07:03.351Z,12.00
2023-03-03T00:07:35.616Z,11.90
2023-03-03T00:08:10.578Z,11.23
2023-03-03T00:08:43.103Z,11.00
2023-03-03T00:09:15.406Z,11.77
2023-03-03T00:09:50.357Z,11.83
2023-03-03T00:10:22.590Z,11.23
2023-03-03T00:10:57.411Z,11.13
2023-03-03T00:11:29.655Z,10.70
2023-03-03T00:12:03.711Z,11.50
2023-03-03T00:12:38.931Z,10.70
2023-03-03T00:13:16.396Z,11.57
2023-03-03T00:13:53.425Z,11.40
2023-03-03T00:14:29.601Z,11.57
2023-03-03T00:15:01.891Z,11.83
2023-03-03T00:15:34.147Z,10.73
2023-03-03T00:16:18.855Z,11.40
2023-03-03T00:16:51.191Z,10.70
2023-03-03T00:17:26.580Z,10.67
2023-03-03T00:18:03.534Z,11.10
2023-03-03T00:18:41.937Z,11.40
2023-03-03T00:19:18.396Z,10.93
2023-03-03T00:19:50.813Z,10.57
2023-03-03T00:20:36.632Z,11.53
2023-03-03T00:21:30.178Z,10.60
2023-03-03T00:22:02.533Z,11.30
2023-03-03T00:22:36.852Z,11.67
2023-03-03T00:23:23.101Z,10.57
2023-03-03T00:24:02.183Z,11.50
2023-03-03T00:24:40.271Z,11.40
2023-03-03T00:25:29.113Z,11.33
2023-03-03T00:26:01.652Z,10.60
2023-03-03T00:26:39.305Z,10.80
2023-03-03T00:27:19.172Z,11.37
2023-03-03T00:27:51.506Z,10.87
2023-03-03T00:28:29.129Z,11.47
2023-03-03T00:29:02.140Z,10.23
2023-03-03T00:29:36.107Z,11.20
2023-03-03T00:30:20.639Z,11.63
2023-03-03T00:30:54.081Z,11.07
2023-03-03T00:31:34.567Z,10.87
2023-03-03T00:32:26.749Z,11.10
2023-03-03T00:32:59.182Z,11.40
2023-03-03T00:33:33.206Z,11.93
2023-03-03T00:34:23.999Z,11.53
2023-03-03T00:34:57.244Z,11.43
2023-03-03T00:35:35.843Z,10.20
2023-03-03T00:36:23.236Z,10.63
2023-03-03T00:36:57.420Z,11.20
2023-03-03T00:37:34.726Z,10.30
2023-03-03T00:38:13.494Z,10.97
2023-03-03T00:38:46.855Z,12.10
2023-03-03T00:39:30.567Z,10.90
2023-03-03T00:40:16.185Z,11.50
2023-03-03T00:40:48.927Z,10.47
2023-03-03T00:41:27.552Z,10.97
2023-03-03T00:42:00.781Z,11.93
2023-03-03T00:42:34.629Z,10.73
2023-03-03T00:43:22.827Z,11.57
2023-03-03T00:43:55.292Z,11.60
2023-03-03T00:44:41.446Z,11.00
2023-03-03T00:45:29.969Z,11.53
2023-03-03T00:46:02.618Z,11.33
2023-03-03T00:46:37.768Z,10.30
2023-03-03T00:47:31.391Z,11.87
2023-03-03T00:48:20.178Z,11.10
2023-03-03T00:48:55.082Z,12.23
2023-03-03T00:49:29.937Z,10.77
2023-03-03T00:50:32.919Z,12.13
2023-03-03T00:51:20.174Z,12.53
2023-03-03T00:51:53.005Z,10.97
2023-03-03T00:52:28.157Z,11.80
2023-03-03T00:53:10.588Z,10.87
2023-03-03T00:53:42.848Z,10.70
2023-03-03T00:54:15.178Z,11.00
2023-03-03T00:54:47.608Z,10.93
2023-03-03T00:55:22.509Z,11.27
2023-03-03T00:55:54.863Z,11.80
2023-03-03T00:56:30.781Z,11.40
2023-03-03T00:57:03.057Z,11.07
2023-03-03T00:57:35.460Z,11.30
2023-03-03T00:58:08.912Z,10.47
2023-03-03T00:58:49.171Z,11.40
2023-03-03T00:59:23.861Z,11.70
2023-03-03T00:59:56.175Z,10.87
2023-03-03T01:00:28.577Z,10.63
2023-03-03T01:01:03.438Z,11.67
2023-03-03T01:01:45.380Z,11.50
2023-03-03T01:02:18.301Z,11.67
2023-03-03T01:02:50.617Z,11.20
2023-03-03T01:03:26.852Z,10.70
2023-03-03T01:03:59.718Z,10.77
2023-03-03T01:04:34.625Z,11.60
2023-03-03T01:05:07.571Z,11.63
2023-03-03T01:05:42.436Z,11.50
2023-03-03T01:06:15.472Z,11.40
2023-03-03T01:06:49.753Z,11.33
2023-03-03T01:07:22.005Z,12.10
2023-03-03T01:07:56.838Z,11.10
2023-03-03T01:08:29.180Z,11.37
2023-03-03T01:09:01.456Z,11.87
2023-03-03T01:09:36.301Z,11.00
2023-03-03T01:10:09.927Z,11.50
2023-03-03T01:10:44.152Z,11.60
2023-03-03T01:11:21.056Z,11.87
2023-03-03T01:11:53.780Z,10.70
2023-03-03T01:12:27.090Z,11.10
2023-03-03T01:12:59.483Z,10.73
2023-03-03T01:13:37.900Z,10.90
2023-03-03T01:14:10.496Z,11.40
2023-03-03T01:14:43.163Z,11.63
2023-03-03T01:15:18.517Z,11.03
2023-03-03T01:15:51.012Z,11.60
2023-03-03T01:16:23.472Z,10.77
2023-03-03T01:16:58.825Z,10.87
2023-03-03T01:17:31.065Z,11.23
2023-03-03T01:18:03.410Z,11.17
2023-03-03T01:18:36.264Z,11.03
2023-03-03T01:19:11.837Z,11.00
2023-03-03T01:19:46.683Z,11.20
2023-03-03T01:20:19.040Z,11.90
2023-03-03T01:20:54.928Z,11.77
2023-03-03T01:21:27.422Z,10.57
2023-03-03T01:21:59.714Z,11.20
2023-03-03T01:22:31.985Z,12.03
2023-03-03T01:23:07.091Z,11.80
2023-03-03T01:23:39.376Z,11.03
2023-03-03T01:24:11.648Z,11.00
2023-03-03T01:24:46.515Z,10.67
2023-03-03T01:25:18.831Z,11.63
2023-03-03T01:25:51.067Z,11.50
2023-03-03T01:26:25.983Z,11.40
2023-03-03T01:26:58.258Z,10.97
2023-03-03T01:27:30.672Z,11.07
2023-03-03T01:28:05.686Z,11.00
2023-03-03T01:28:38.003Z,11.13
2023-03-03T01:29:10.284Z,11.20
2023-03-03T01:29:42.531Z,11.20
2023-03-03T01:30:18.621Z,11.03
2023-03-03T01:30:51.136Z,11.70
2023-03-03T01:31:23.474Z,11.30
2023-03-03T01:31:55.858Z,11.10
2023-03-03T01:32:31.296Z,11.67
2023-03-03T01:33:03.940Z,11.17
2023-03-03T01:33:36.770Z,10.90
2023-03-03T01:34:11.748Z,11.90
2023-03-03T01:34:46.616Z,12.27
2023-03-03T01:35:19.253Z,11.53
2023-03-03T01:35:54.199Z,12.20
2023-03-03T01:36:28.199Z,11.83
2023-03-03T01:37:01.183Z,12.03
2023-03-03T01:37:37.471Z,11.67
2023-03-03T01:38:09.708Z,11.50
2023-03-03T01:38:41.970Z,11.20
2023-03-03T01:39:16.852Z,10.60
2023-03-03T01:39:50.448Z,11.53
2023-03-03T01:40:23.896Z,11.97
2023-03-03T01:41:00.249Z,11.40
2023-03-03T01:41:33.672Z,11.43
2023-03-03T01:42:06.285Z,12.07
2023-03-03T01:42:38.718Z,11.50
2023-03-03T01:43:16.132Z,11.30
2023-03-03T01:43:50.347Z,12.10
2023-03-03T01:44:22.660Z,10.87
2023-03-03T01:45:15.665Z,10.93
2023-03-03T01:46:18.084Z,12.20
2023-03-03T01:46:57.620Z,10.80
2023-03-03T01:47:32.636Z,12.20
2023-03-03T01:48:07.465Z,11.10
2023-03-03T01:48:40.965Z,11.57
2023-03-03T01:49:18.852Z,11.33
2023-03-03T01:49:57.082Z,11.50
2023-03-03T01:50:36.162Z,11.83
2023-03-03T01:51:18.714Z,11.63
2023-03-03T01:51:53.456Z,12.07
2023-03-03T01:52:31.715Z,11.57
2023-03-03T01:53:05.551Z,12.13
2023-03-03T01:53:42.116Z,12.60
2023-03-03T01:54:20.835Z,12.27
2023-03-03T01:54:56.083Z,12.83
2023-03-03T01:55:31.376Z,11.53
2023-03-03T01:56:08.119Z,12.17
2023-03-03T01:56:42.136Z,11.77
2023-03-03T01:57:18.605Z,11.30
2023-03-03T01:57:58.032Z,11.77
2023-03-03T01:58:32.594Z,11.87
2023-03-03T01:59:06.697Z,11.30
2023-03-03T01:59:45.536Z,12.27
2023-03-03T02:00:18.387Z,12.10
2023-03-03T02:00:56.955Z,12.20
2023-03-03T02:01:30.068Z,11.20
2023-03-03T02:02:04.246Z,11.27
2023-03-03T02:02:39.469Z,11.50
2023-03-03T02:03:11.998Z,11.80
2023-03-03T02:03:44.395Z,12.20
2023-03-03T02:04:22.003Z,11.27
2023-03-03T02:04:56.881Z,11.60
2023-03-03T02:05:29.633Z,12.20
2023-03-03T02:06:07.820Z,12.60
2023-03-03T02:06:44.869Z,11.40
2023-03-03T02:07:18.236Z,11.47
2023-03-03T02:07:54.523Z,12.00
2023-03-03T02:08:30.982Z,12.10
2023-03-03T02:09:09.932Z,11.60
2023-03-03T02:09:52.597Z,11.43
2023-03-03T02:10:25.153Z,11.03
2023-03-03T02:10:59.190Z,11.97
2023-03-03T02:11:36.069Z,11.97
2023-03-03T02:12:09.792Z,12.07
2023-03-03T02:12:44.216Z,11.40
2023-03-03T02:13:19.101Z,12.90
2023-03-03T02:13:51.683Z,11.60
2023-03-03T02:14:25.414Z,12.20
2023-03-03T02:15:00.244Z,11.83
2023-03-03T02:15:36.006Z,11.37
2023-03-03T02:16:09.089Z,12.23
2023-03-03T02:16:44.568Z,12.33
2023-03-03T02:17:16.994Z,11.40
2023-03-03T02:17:50.544Z,11.53
2023-03-03T02:18:25.906Z,12.37
2023-03-03T02:18:58.212Z,11.60
2023-03-03T02:19:35.623Z,10.90
2023-03-03T02:20:17.818Z,11.73
2023-03-03T02:20:54.960Z,11.50
2023-03-03T02:21:27.881Z,11.50
2023-03-03T02:22:02.304Z,11.73
2023-03-03T02:22:44.355Z,11.00
2023-03-03T02:23:23.281Z,11.60
2023-03-03T02:24:03.151Z,11.20
2023-03-03T02:24:42.771Z,11.87
2023-03-03T02:25:20.491Z,12.70
2023-03-03T02:26:08.392Z,12.10
2023-03-03T02:26:42.139Z,11.40
2023-03-03T02:27:16.112Z,11.70
2023-03-03T02:27:52.544Z,12.30
2023-03-03T02:28:26.831Z,11.77
2023-03-03T02:28:59.227Z,10.90
2023-03-03T02:29:35.052Z,11.70
2023-03-03T02:30:12.303Z,11.33
2023-03-03T02:30:44.631Z,11.63
2023-03-03T02:31:22.586Z,11.77
2023-03-03T02:31:55.093Z,11.40
2023-03-03T02:32:27.802Z,12.27
2023-03-03T02:33:02.756Z,11.27
2023-03-03T02:33:35.028Z,11.90
2023-03-03T02:34:08.296Z,11.70
2023-03-03T02:34:50.571Z,11.63
2023-03-03T02:35:29.247Z,12.10
2023-03-03T02:36:01.634Z,11.47
2023-03-03T02:36:38.595Z,11.93
2023-03-03T02:37:10.845Z,11.20
2023-03-03T02:37:43.381Z,12.50
2023-03-03T02:38:21.162Z,11.40
2023-03-03T02:39:00.740Z,11.60
2023-03-03T02:39:32.978Z,11.27
2023-03-03T02:40:07.276Z,11.67
2023-03-03T02:40:44.545Z,12.50
2023-03-03T02:41:30.325Z,12.63
2023-03-03T02:42:08.086Z,11.20
2023-03-03T02:42:46.241Z,11.57
2023-03-03T02:43:22.724Z,11.53
2023-03-03T02:43:58.991Z,11.70
2023-03-03T02:44:35.398Z,11.43
2023-03-03T02:45:08.985Z,12.10
2023-03-03T02:45:43.710Z,12.10
2023-03-03T02:46:19.587Z,11.60
2023-03-03T02:46:53.029Z,11.90
2023-03-03T02:47:25.647Z,11.30
2023-03-03T02:48:00.752Z,11.27
2023-03-03T02:48:32.997Z,12.40
2023-03-03T02:49:06.238Z,11.47
2023-03-03T02:49:43.046Z,12.13
2023-03-03T02:50:15.553Z,11.30
2023-03-03T02:50:47.834Z,11.90
2023-03-03T02:51:20.272Z,12.20
2023-03-03T02:51:56.076Z,12.20
2023-03-03T02:52:30.657Z,11.20
2023-03-03T02:53:02.929Z,11.17
2023-03-03T02:53:38.296Z,13.00
2023-03-03T02:54:12.168Z,11.93
2023-03-03T02:54:47.597Z,12.17
2023-03-03T02:55:19.990Z,12.10
2023-03-03T02:55:52.309Z,13.37
2023-03-03T02:56:30.344Z,11.27
2023-03-03T02:57:02.770Z,11.60
2023-03-03T02:57:35.098Z,12.20
2023-03-03T02:58:09.977Z,11.83
2023-03-03T02:58:42.353Z,12.07
2023-03-03T02:59:15.252Z,12.10
2023-03-03T02:59:54.244Z,11.90
2023-03-03T03:00:26.596Z,12.03
2023-03-03T03:00:58.949Z,11.70
2023-03-03T03:01:37.250Z,11.77
2023-03-03T03:02:12.582Z,12.13
2023-03-03T03:02:44.828Z,11.63
2023-03-03T03:03:18.060Z,11.93
2023-03-03T03:03:53.477Z,12.10
2023-03-03T03:04:28.645Z,11.50
2023-03-03T03:05:01.230Z,11.27
2023-03-03T03:05:36.123Z,11.87
2023-03-03T03:06:08.989Z,11.73
2023-03-03T03:06:41.752Z,12.00
2023-03-03T03:07:14.087Z,12.20
2023-03-03T03:07:49.675Z,12.20
2023-03-03T03:08:22.292Z,11.90
2023-03-03T03:08:55.613Z,12.60
2023-03-03T03:09:30.900Z,12.87
2023-03-03T03:10:05.372Z,11.10
2023-03-03T03:10:40.848Z,10.80
2023-03-03T03:11:15.810Z,11.87
2023-03-03T03:11:50.993Z,11.50
2023-03-03T03:12:26.240Z,13.00
2023-03-03T03:13:03.057Z,11.47
2023-03-03T03:13:35.663Z,11.70
2023-03-03T03:14:09.910Z,12.70
2023-03-03T03:14:44.850Z,11.73
2023-03-03T03:15:17.336Z,12.20
2023-03-03T03:15:49.597Z,13.50
2023-03-03T03:16:24.548Z,13.17
2023-03-03T03:16:56.992Z,13.33
2023-03-03T03:17:29.254Z,12.40
2023-03-03T03:18:04.118Z,12.20
2023-03-03T03:18:37.208Z,11.87
2023-03-03T03:19:09.521Z,12.57
2023-03-03T03:19:45.456Z,12.17
2023-03-03T03:20:18.327Z,11.87
2023-03-03T03:20:51.218Z,11.63
2023-03-03T03:21:26.204Z,11.97
2023-03-03T03:21:58.617Z,11.60
2023-03-03T03:22:30.906Z,11.37
2023-03-03T03:23:03.148Z,12.03
2023-03-03T03:23:38.687Z,10.80
2023-03-03T03:24:11.227Z,11.80
2023-03-03T03:24:47.393Z,11.00
2023-03-03T03:25:23.725Z,12.33
2023-03-03T03:25:55.990Z,12.07
2023-03-03T03:26:32.387Z,11.63
2023-03-03T03:27:10.308Z,11.60
2023-03-03T03:27:42.604Z,11.60
2023-03-03T03:28:16.293Z,11.53
2023-03-03T03:28:51.578Z,11.83
2023-03-03T03:29:24.096Z,13.03
2023-03-03T03:29:56.396Z,11.93
2023-03-03T03:30:31.639Z,12.10
2023-03-03T03:31:05.173Z,11.80
2023-03-03T03:31:39.374Z,12.20
2023-03-03T03:32:14.629Z,12.13
2023-03-03T03:32:47.048Z,11.50
2023-03-03T03:33:19.566Z,11.63
2023-03-03T03:33:54.764Z,11.57
2023-03-03T03:34:27.556Z,11.23
2023-03-03T03:35:01.392Z,11.40
2023-03-03T03:35:36.630Z,11.07
2023-03-03T03:36:09.653Z,12.00
2023-03-03T03:36:43.193Z,11.63
2023-03-03T03:37:19.353Z,12.27
2023-03-03T03:37:52.355Z,11.40
2023-03-03T03:38:27.276Z,11.70
2023-03-03T03:39:02.916Z,12.00
2023-03-03T03:39:36.065Z,11.70
2023-03-03T03:40:10.002Z,12.47
2023-03-03T03:40:44.970Z,12.20
2023-03-03T03:41:17.301Z,12.03
2023-03-03T03:41:49.549Z,12.57
2023-03-03T03:42:26.989Z,11.60
2023-03-03T03:42:59.325Z,12.07
2023-03-03T03:43:31.585Z,12.33
2023-03-03T03:44:07.392Z,12.43
2023-03-03T03:44:39.682Z,12.30
2023-03-03T03:45:15.330Z,11.80
2023-03-03T03:45:52.355Z,11.67
2023-03-03T03:46:25.176Z,12.20
2023-03-03T03:46:57.658Z,11.63
2023-03-03T03:47:33.068Z,11.53
2023-03-03T03:48:06.308Z,11.70
2023-03-03T03:48:38.871Z,11.90
2023-03-03T03:49:15.863Z,11.23
2023-03-03T03:49:48.198Z,11.30
2023-03-03T03:50:20.487Z,12.17
2023-03-03T03:50:55.465Z,12.20
2023-03-03T03:51:31.326Z,12.10
2023-03-03T03:52:04.726Z,11.90
2023-03-03T03:52:41.527Z,11.03
2023-03-03T03:53:14.004Z,11.37
2023-03-03T03:53:48.857Z,12.27
2023-03-03T03:54:21.280Z,11.87
2023-03-03T03:54:54.733Z,11.50
2023-03-03T03:55:27.093Z,11.70
2023-03-03T03:56:02.088Z,11.90
2023-03-03T03:56:35.401Z,12.37
2023-03-03T03:57:08.512Z,11.80
2023-03-03T03:57:46.577Z,11.40
2023-03-03T03:58:19.540Z,11.80
2023-03-03T03:58:58.336Z,11.27
2023-03-03T03:59:33.220Z,11.57
2023-03-03T04:00:07.428Z,11.40
2023-03-03T04:00:47.177Z,11.83
2023-03-03T04:01:22.337Z,12.10
2023-03-03T04:01:55.430Z,12.03
2023-03-03T04:02:29.049Z,13.20
2023-03-03T04:03:04.155Z,11.93
2023-03-03T04:03:36.835Z,12.10
2023-03-03T04:04:13.932Z,11.80
2023-03-03T04:04:48.814Z,12.00
2023-03-03T04:05:21.131Z,12.00
2023-03-03T04:05:53.850Z,11.60
2023-03-03T04:06:26.370Z,11.27
2023-03-03T04:07:01.440Z,11.70
2023-03-03T04:07:33.959Z,11.87
2023-03-03T04:08:07.447Z,12.23
2023-03-03T04:08:42.366Z,12.50
2023-03-03T04:09:15.364Z,11.13
2023-03-03T04:09:48.260Z,12.57
2023-03-03T04:10:23.469Z,11.57
2023-03-03T04:10:55.722Z,12.80
2023-03-03T04:11:28.951Z,12.60
2023-03-03T04:12:03.875Z,12.47
2023-03-03T04:12:38.753Z,12.00
2023-03-03T04:13:17.222Z,11.17
2023-03-03T04:13:53.256Z,12.60
2023-03-03T04:14:25.674Z,11.60
2023-03-03T04:14:59.054Z,11.13
2023-03-03T04:15:34.072Z,12.20
2023-03-03T04:16:07.484Z,12.60
2023-03-03T04:16:40.821Z,12.10
2023-03-03T04:17:19.707Z,12.30
2023-03-03T04:17:52.074Z,12.57
2023-03-03T04:18:24.354Z,11.40
2023-03-03T04:18:59.510Z,12.20
2023-03-03T04:19:32.074Z,12.40
2023-03-03T04:20:05.074Z,12.33
2023-03-03T04:20:40.193Z,11.73
2023-03-03T04:21:14.381Z,12.80
2023-03-03T04:21:46.830Z,12.13
2023-03-03T04:22:21.677Z,12.50
2023-03-03T04:22:54.561Z,12.60
2023-03-03T04:23:26.981Z,12.27
2023-03-03T04:24:02.162Z,13.00
2023-03-03T04:24:35.822Z,11.57
2023-03-03T04:25:11.544Z,12.07
2023-03-03T04:25:49.785Z,12.20
2023-03-03T04:26:22.180Z,13.00
2023-03-03T04:26:57.466Z,12.93
2023-03-03T04:27:29.775Z,12.40
2023-03-03T04:28:03.953Z,12.67
2023-03-03T04:28:43.118Z,12.80
2023-03-03T04:29:16.037Z,13.37
2023-03-03T04:29:49.693Z,13.00
2023-03-03T04:30:24.622Z,13.20
2023-03-03T04:30:59.901Z,11.87
2023-03-03T04:31:33.804Z,12.70
2023-03-03T04:32:09.659Z,11.97
2023-03-03T04:32:43.154Z,11.40
2023-03-03T04:33:18.578Z,11.93
2023-03-03T04:33:54.300Z,12.77
2023-03-03T04:34:28.052Z,12.47
2023-03-03T04:35:07.659Z,12.60
2023-03-03T04:35:42.383Z,13.10
2023-03-03T04:36:17.359Z,13.10
2023-03-03T04:36:49.741Z,11.60
2023-03-03T04:37:22.090Z,13.20
2023-03-03T04:37:57.170Z,12.00
2023-03-03T04:38:30.304Z,12.30
2023-03-03T04:39:02.610Z,12.30
2023-03-03T04:39:38.100Z,11.70
2023-03-03T04:40:11.682Z,12.60
2023-03-03T04:40:45.645Z,13.00
2023-03-03T04:41:21.267Z,12.23
2023-03-03T04:41:53.579Z,12.37
2023-03-03T04:42:28.230Z,12.77
2023-03-03T04:43:04.281Z,13.20
2023-03-03T04:43:39.434Z,11.60
2023-03-03T04:44:11.867Z,13.13
2023-03-03T04:44:46.927Z,12.37
2023-03-03T04:45:19.695Z,12.77
2023-03-03T04:45:52.479Z,12.33
2023-03-03T04:46:27.368Z,12.60
2023-03-03T04:46:59.656Z,12.73
2023-03-03T04:47:32.648Z,11.67
2023-03-03T04:48:08.609Z,11.40
2023-03-03T04:48:41.555Z,11.60
2023-03-03T04:49:14.803Z,11.60
2023-03-03T04:49:51.134Z,11.30
2023-03-03T04:50:23.427Z,11.97
2023-03-03T04:50:55.952Z,11.63
2023-03-03T04:51:30.840Z,12.00
2023-03-03T04:52:03.972Z,11.67
2023-03-03T04:52:36.678Z,12.60
2023-03-03T04:53:12.818Z,11.40
2023-03-03T04:53:46.875Z,12.53
2023-03-03T04:54:19.465Z,13.40
2023-03-03T04:54:54.339Z,12.10
2023-03-03T04:55:26.648Z,12.27
2023-03-03T04:55:58.907Z,12.50
2023-03-03T04:56:34.336Z,12.00
2023-03-03T04:57:07.998Z,13.17
2023-03-03T04:57:40.332Z,12.33
2023-03-03T04:58:13.257Z,12.40
2023-03-03T04:58:51.036Z,12.30
2023-03-03T04:59:23.276Z,13.23
2023-03-03T04:59:55.584Z,12.40
2023-03-03T05:00:30.461Z,12.40
2023-03-03T05:01:02.804Z,13.23
2023-03-03T05:01:37.016Z,13.40
2023-03-03T05:02:13.157Z,12.20
2023-03-03T05:02:45.508Z,12.60
2023-03-03T05:03:19.688Z,12.53
2023-03-03T05:03:54.618Z,14.17
2023-03-03T05:04:27.494Z,13.33
2023-03-03T05:04:59.801Z,13.40
2023-03-03T05:05:34.658Z,13.07
2023-03-03T05:06:07.638Z,13.13
2023-03-03T05:06:41.016Z,12.73
2023-03-03T05:07:15.915Z,12.73
2023-03-03T05:07:48.153Z,12.40
2023-03-03T05:08:20.503Z,12.37
2023-03-03T05:08:55.330Z,13.57
2023-03-03T05:09:27.763Z,13.10
2023-03-03T05:09:59.980Z,11.63
2023-03-03T05:10:35.228Z,13.17
2023-03-03T05:11:07.556Z,12.20
2023-03-03T05:11:39.799Z,12.33
2023-03-03T05:12:14.697Z,13.43
2023-03-03T05:12:47.040Z,13.20
2023-03-03T05:13:19.441Z,12.93
2023-03-03T05:13:56.890Z,12.83
2023-03-03T05:14:29.198Z,13.00
2023-03-03T05:15:01.643Z,12.73
2023-03-03T05:15:36.526Z,12.97
2023-03-03T05:16:09.159Z,12.27
2023-03-03T05:16:41.553Z,12.67
2023-03-03T05:17:16.424Z,13.37
2023-03-03T05:17:48.657Z,13.20
2023-03-03T05:18:21.063Z,11.90
2023-03-03T05:18:55.953Z,12.37
2023-03-03T05:19:28.421Z,12.17
2023-03-03T05:20:00.686Z,12.90
2023-03-03T05:20:35.522Z,12.03
2023-03-03T05:21:08.193Z,12.33
2023-03-03T05:21:42.734Z,11.93
2023-03-03T05:22:18.365Z,11.83
2023-03-03T05:22:50.649Z,11.07
2023-03-03T05:23:23.545Z,12.27
2023-03-03T05:23:55.785Z,11.83
2023-03-03T05:24:30.720Z,12.67
2023-03-03T05:25:02.983Z,13.00
2023-03-03T05:25:35.231Z,12.07
2023-03-03T05:26:10.089Z,13.57
2023-03-03T05:26:42.440Z,12.30
2023-03-03T05:27:14.712Z,13.00
2023-03-03T05:27:49.640Z,13.20
2023-03-03T05:28:21.888Z,12.50
2023-03-03T05:28:56.743Z,13.50
2023-03-03T05:29:31.717Z,12.90
2023-03-03T05:30:04.636Z,13.50
2023-03-03T05:30:37.361Z,11.90
2023-03-03T05:31:12.411Z,12.97
2023-03-03T05:31:45.726Z,12.40
2023-03-03T05:32:18.221Z,12.30
2023-03-03T05:32:53.097Z,12.53
2023-03-03T05:33:25.491Z,12.97
2023-03-03T05:34:00.337Z,11.93
2023-03-03T05:34:32.654Z,12.80
2023-03-03T05:35:05.750Z,13.03
2023-03-03T05:35:40.637Z,11.87
2023-03-03T05:36:12.889Z,12.47
2023-03-03T05:36:45.194Z,12.80
2023-03-03T05:37:20.151Z,12.03
2023-03-03T05:37:52.902Z,13.07
2023-03-03T05:38:25.915Z,12.33
2023-03-03T05:39:00.808Z,12.37
2023-03-03T05:39:33.113Z,12.57
2023-03-03T05:40:06.839Z,12.93
2023-03-03T05:40:39.222Z,12.60
2023-03-03T05:41:14.124Z,13.10
2023-03-03T05:41:46.402Z,11.70
2023-03-03T05:42:18.683Z,12.37
2023-03-03T05:42:53.759Z,12.50
2023-03-03T05:43:26.299Z,12.23
2023-03-03T05:44:01.167Z,11.90
2023-03-03T05:44:36.003Z,13.03
2023-03-03T05:45:09.451Z,12.57
2023-03-03T05:45:41.726Z,12.53
2023-03-03T05:46:16.691Z,13.30
2023-03-03T05:46:49.124Z,11.63
2023-03-03T05:47:21.412Z,12.63
2023-03-03T05:47:56.788Z,13.10
2023-03-03T05:48:29.088Z,12.40
2023-03-03T05:49:01.393Z,12.70
2023-03-03T05:49:36.418Z,14.17
2023-03-03T05:50:10.300Z,13.20
2023-03-03T05:50:42.618Z,12.97
2023-03-03T05:51:17.541Z,12.83
2023-03-03T05:51:49.796Z,12.37
2023-03-03T05:52:22.522Z,13.20
2023-03-03T05:52:57.359Z,13.10
2023-03-03T05:53:30.297Z,12.43
2023-03-03T05:54:02.701Z,12.20
2023-03-03T05:54:37.941Z,12.47
2023-03-03T05:55:11.372Z,13.10
2023-03-03T05:55:43.623Z,12.63
2023-03-03T05:56:18.464Z,12.10
2023-03-03T05:56:50.720Z,12.50
2023-03-03T05:57:23.345Z,12.57
2023-03-03T05:57:58.298Z,12.80
2023-03-03T05:58:30.613Z,12.70
2023-03-03T05:59:05.469Z,13.73
2023-03-03T05:59:40.569Z,12.33
2023-03-03T06:00:14.341Z,12.33
2023-03-03T06:00:49.203Z,12.50
2023-03-03T06:01:22.271Z,12.97
2023-03-03T06:01:54.586Z,12.70
2023-03-03T06:02:29.475Z,11.90
2023-03-03T06:03:01.920Z,13.10
2023-03-03T06:03:34.320Z,12.57
2023-03-03T06:04:06.712Z,13.13
2023-03-03T06:04:41.590Z,13.80
2023-03-03T06:05:13.822Z,12.90
2023-03-03T06:05:46.048Z,14.20
2023-03-03T06:06:19.374Z,11.90
2023-03-03T06:06:54.212Z,12.90
2023-03-03T06:07:26.454Z,12.53
2023-03-03T06:07:58.728Z,13.53
2023-03-03T06:08:33.590Z,12.60
2023-03-03T06:09:06.454Z,13.60
2023-03-03T06:09:38.947Z,13.27
2023-03-03T06:10:14.407Z,12.93
2023-03-03T06:10:51.588Z,13.50
2023-03-03T06:11:23.964Z,13.60
2023-03-03T06:11:58.808Z,13.57
2023-03-03T06:12:31.128Z,12.57
2023-03-03T06:13:03.368Z,12.60
2023-03-03T06:13:38.211Z,12.37
2023-03-03T06:14:13.042Z,13.10
2023-03-03T06:14:45.295Z,12.73
2023-03-03T06:15:20.395Z,13.43
2023-03-03T06:15:53.641Z,12.70
2023-03-03T06:16:26.021Z,14.37
2023-03-03T06:17:00.952Z,13.30
2023-03-03T06:17:33.213Z,14.00
2023-03-03T06:18:05.643Z,14.30
2023-03-03T06:18:40.786Z,12.77
2023-03-03T06:19:13.046Z,13.30
2023-03-03T06:19:45.305Z,12.63
2023-03-03T06:20:20.325Z,13.30
2023-03-03T06:20:53.104Z,13.70
2023-03-03T06:21:25.467Z,14.97
2023-03-03T06:22:00.884Z,14.17
2023-03-03T06:22:33.276Z,15.07
2023-03-03T06:23:05.899Z,15.27
2023-03-03T06:23:40.790Z,14.87
2023-03-03T06:24:13.105Z,16.40
2023-03-03T06:24:45.424Z,16.00
2023-03-03T06:25:20.633Z,16.43
2023-03-03T06:25:53.411Z,15.30
2023-03-03T06:26:25.754Z,16.83
2023-03-03T06:27:00.608Z,16.33
2023-03-03T06:27:32.845Z,17.33
2023-03-03T06:28:05.234Z,16.13
2023-03-03T06:28:40.106Z,17.03
2023-03-03T06:29:15.876Z,17.17
2023-03-03T06:29:48.163Z,16.80
2023-03-03T06:30:23.177Z,17.93
2023-03-03T06:30:55.906Z,17.30
2023-03-03T06:31:28.504Z,16.80
2023-03-03T06:32:03.479Z,17.97
2023-03-03T06:32:35.910Z,16.87
2023-03-03T06:33:08.201Z,16.73
2023-03-03T06:33:43.537Z,17.50
2023-03-03T06:34:15.893Z,16.17
2023-03-03T06:34:48.158Z,17.80
2023-03-03T06:35:23.259Z,16.53
2023-03-03T06:35:55.674Z,17.63
2023-03-03T06:36:30.562Z,17.10
2023-03-03T06:37:02.832Z,16.93
2023-03-03T06:37:35.067Z,17.17
2023-03-03T06:38:09.929Z,15.87
2023-03-03T06:38:42.177Z,16.27
2023-03-03T06:39:14.439Z,17.70
2023-03-03T06:39:49.298Z,16.47
2023-03-03T06:40:21.604Z,15.90
2023-03-03T06:40:53.847Z,15.97
2023-03-03T06:41:28.689Z,15.87
2023-03-03T06:42:01.000Z,15.13
2023-03-03T06:42:33.254Z,16.73
2023-03-03T06:43:08.125Z,16.70
2023-03-03T06:43:40.405Z,15.90
2023-03-03T06:44:15.267Z,14.77
2023-03-03T06:44:50.148Z,15.43
2023-03-03T06:45:22.448Z,16.43
2023-03-03T06:45:54.702Z,14.63
2023-03-03T06:46:29.768Z,16.20
2023-03-03T06:47:02.177Z,15.83
2023-03-03T06:47:34.559Z,15.53
2023-03-03T06:48:09.851Z,15.13
2023-03-03T06:48:42.090Z,15.10
2023-03-03T06:49:14.387Z,15.10
2023-03-03T06:49:49.273Z,15.83
2023-03-03T06:50:21.994Z,15.27
2023-03-03T06:50:54.222Z,15.30
2023-03-03T06:51:35.216Z,14.93
2023-03-03T06:52:13.194Z,15.70
2023-03-03T06:52:48.182Z,15.70
2023-03-03T06:53:20.564Z,15.80
2023-03-03T06:53:54.637Z,15.10
2023-03-03T06:54:31.544Z,16.77
2023-03-03T06:55:12.054Z,15.60
2023-03-03T06:55:47.323Z,15.37
2023-03-03T06:56:19.615Z,16.00
2023-03-03T06:56:54.904Z,16.43
2023-03-03T06:57:31.766Z,16.60
2023-03-03T06:58:08.835Z,16.00
2023-03-03T06:58:43.669Z,15.17
2023-03-03T06:59:19.797Z,14.97
2023-03-03T06:59:56.306Z,15.50
2023-03-03T07:00:30.943Z,15.30
2023-03-03T07:01:06.128Z,16.43
2023-03-03T07:01:38.900Z,15.00
2023-03-03T07:02:17.222Z,15.20
2023-03-03T07:02:57.233Z,16.40
2023-03-03T07:03:34.031Z,15.73
2023-03-03T07:04:12.913Z,15.87
2023-03-03T07:04:48.405Z,15.60
2023-03-03T07:05:26.520Z,16.20
2023-03-03T07:06:01.437Z,15.07
2023-03-03T07:06:33.685Z,15.60
2023-03-03T07:07:11.819Z,15.20
2023-03-03T07:07:46.840Z,14.67
2023-03-03T07:08:21.527Z,15.20
2023-03-03T07:08:54.152Z,15.23
2023-03-03T07:09:30.871Z,15.10
2023-03-03T07:10:11.744Z,14.70
2023-03-03T07:10:47.045Z,14.80
2023-03-03T07:11:21.804Z,14.83
2023-03-03T07:11:57.460Z,15.07
2023-03-03T07:12:33.568Z,15.70
2023-03-03T07:13:18.132Z,14.57
2023-03-03T07:13:54.473Z,14.40
2023-03-03T07:14:30.140Z,15.57
2023-03-03T07:15:18.549Z,14.77
2023-03-03T07:15:52.398Z,15.47
2023-03-03T07:16:26.264Z,15.53
2023-03-03T07:17:05.051Z,15.23
2023-03-03T07:17:41.191Z,16.33
2023-03-03T07:18:30.621Z,15.17
2023-03-03T07:19:04.155Z,13.97
2023-03-03T07:19:41.273Z,15.37
2023-03-03T07:20:19.927Z,14.57
2023-03-03T07:20:52.186Z,15.23
2023-03-03T07:21:29.433Z,15.60
2023-03-03T07:22:02.356Z,14.33
2023-03-03T07:22:34.656Z,14.77
2023-03-03T07:23:21.898Z,14.57
2023-03-03T07:23:54.679Z,15.07
2023-03-03T07:24:28.408Z,14.73
2023-03-03T07:25:04.704Z,14.63
2023-03-03T07:25:36.963Z,15.13
2023-03-03T07:26:12.055Z,15.00
2023-03-03T07:26:46.891Z,15.07
2023-03-03T07:27:24.034Z,15.07
2023-03-03T07:28:02.017Z,15.80